Time;durP1;ratioP1;P1;durP2;ratioP2;P2;SDS_P1;SDS_P2;PMS_P1;PMS_P2;Temp;Humidity;BMP_temperature;BMP_pressure;BME280_temperature;BME280_humidity;BME280_pressure;Samples;Min_cycle;Max_cycle;Signal;HPM_P1;HPM_P2
2023/04/17 00:01:09;;;;;;;24.25;17.75;;;11.20;99.90;;;;;;4887535;29;20087;-77
2023/04/17 00:03:38;;;;;;;21.80;17.83;;;11.10;99.90;;;;;;4886131;29;20139;-77
2023/04/17 00:06:06;;;;;;;23.60;18.35;;;11.10;99.90;;;;;;4885045;29;20045;-77
2023/04/17 00:08:33;;;;;;;25.77;19.85;;;11.10;99.90;;;;;;4886514;29;20127;-77
2023/04/17 00:11:01;;;;;;;24.30;19.05;;;11.10;99.90;;;;;;4885132;29;20093;-76
2023/04/17 00:13:30;;;;;;;24.77;18.63;;;11.10;99.90;;;;;;4886046;29;20041;-77
2023/04/17 00:15:57;;;;;;;22.00;18.40;;;11.20;99.90;;;;;;4887646;29;20049;-78
2023/04/17 00:18:25;;;;;;;24.02;18.10;;;11.20;99.90;;;;;;4888256;29;20064;-76
2023/04/17 00:20:52;;;;;;;20.77;18.20;;;11.10;99.90;;;;;;4887028;29;20054;-77
2023/04/17 00:23:19;;;;;;;23.48;19.17;;;11.20;99.90;;;;;;4887802;29;20124;-76
2023/04/17 00:25:47;;;;;;;23.83;18.92;;;11.20;99.90;;;;;;4870219;29;20057;-77
2023/04/17 00:28:14;;;;;;;26.13;19.38;;;11.30;99.90;;;;;;4888933;29;20076;-74
2023/04/17 00:30:44;;;;;;;22.08;18.77;;;11.30;99.90;;;;;;4889969;29;20056;-76
2023/04/17 00:33:11;;;;;;;22.90;18.80;;;11.30;99.90;;;;;;4888644;29;20068;-79
2023/04/17 00:35:38;;;;;;;34.60;28.02;;;11.30;99.90;;;;;;4896483;29;20062;-77
2023/04/17 00:38:08;;;;;;;20.98;18.08;;;11.30;99.90;;;;;;4897620;29;20053;-76
2023/04/17 00:40:35;;;;;;;19.80;17.67;;;11.30;99.90;;;;;;4877423;29;20108;-75
2023/04/17 00:43:03;;;;;;;19.88;17.73;;;11.30;99.90;;;;;;4903507;29;20071;-77
2023/04/17 00:45:31;;;;;;;21.42;16.40;;;11.30;99.90;;;;;;4893837;29;20068;-76
2023/04/17 00:48:01;;;;;;;22.67;16.30;;;11.30;99.90;;;;;;4884655;29;20097;-78
2023/04/17 00:50:28;;;;;;;16.90;14.80;;;11.40;99.90;;;;;;4887104;29;20063;-77
2023/04/17 00:52:59;;;;;;;20.10;15.55;;;11.30;99.90;;;;;;4885915;29;20053;-76
2023/04/17 00:55:27;;;;;;;18.80;15.25;;;11.40;99.90;;;;;;4887034;29;20057;-77
2023/04/17 00:57:56;;;;;;;18.35;15.65;;;11.40;99.90;;;;;;4870197;29;20060;-76
2023/04/17 01:00:24;;;;;;;17.23;15.50;;;11.40;99.90;;;;;;4890001;29;20040;-76
2023/04/17 01:02:51;;;;;;;18.45;16.42;;;11.30;99.90;;;;;;4872791;29;20053;-74
2023/04/17 01:05:20;;;;;;;21.92;16.27;;;11.30;99.90;;;;;;4889268;29;20045;-76
2023/04/17 01:07:48;;;;;;;19.63;16.30;;;11.30;99.90;;;;;;4885757;29;20109;-77
2023/04/17 01:10:16;;;;;;;17.77;15.88;;;11.40;99.90;;;;;;4888510;29;20053;-77
2023/04/17 01:12:45;;;;;;;17.85;15.95;;;11.40;99.90;;;;;;4902204;29;20047;-76
2023/04/17 01:15:13;;;;;;;18.83;16.63;;;11.40;99.90;;;;;;4889100;29;20093;-76
2023/04/17 01:17:41;;;;;;;18.38;16.42;;;11.40;99.90;;;;;;4885393;29;20055;-76
2023/04/17 01:20:09;;;;;;;19.20;16.63;;;11.40;99.90;;;;;;4885294;29;20068;-77
2023/04/17 01:22:51;;;;;;;18.80;16.20;;;11.40;99.90;;;;;;4870906;29;20057;-77
2023/04/17 01:25:20;;;;;;;18.00;15.48;;;11.40;99.90;;;;;;4870780;29;20053;-76
2023/04/17 01:27:47;;;;;;;18.35;15.45;;;11.40;99.90;;;;;;4876076;29;20411;-74
2023/04/17 01:30:15;;;;;;;17.10;15.27;;;11.40;99.90;;;;;;4907163;29;20058;-77
2023/04/17 01:33:03;;;;;;;15.85;14.15;;;11.40;99.90;;;;;;4910873;29;20049;-77
2023/04/17 01:35:30;;;;;;;16.48;14.77;;;11.50;99.90;;;;;;4875548;29;20057;-77
2023/04/17 01:37:58;;;;;;;17.85;14.75;;;11.40;99.90;;;;;;4871418;29;20045;-77
2023/04/17 01:40:27;;;;;;;19.50;14.80;;;11.40;99.90;;;;;;4869432;29;20068;-78
2023/04/17 01:42:55;;;;;;;16.90;15.13;;;11.40;99.90;;;;;;4893089;29;20509;-76
2023/04/17 01:45:22;;;;;;;19.05;15.85;;;11.40;99.90;;;;;;4884567;29;20573;-77
2023/04/17 01:47:51;;;;;;;18.23;16.25;;;11.40;99.90;;;;;;4884160;29;20131;-76
2023/04/17 01:50:18;;;;;;;21.33;16.25;;;11.40;99.90;;;;;;4869226;29;20052;-78
2023/04/17 01:52:46;;;;;;;18.70;16.00;;;11.50;99.90;;;;;;4887838;29;20076;-76
2023/04/17 01:55:13;;;;;;;18.88;16.70;;;11.50;99.90;;;;;;4886114;29;20048;-77
2023/04/17 01:57:42;;;;;;;20.92;16.23;;;11.50;99.90;;;;;;4890056;29;20045;-76
2023/04/17 02:00:10;;;;;;;19.63;16.20;;;11.50;99.90;;;;;;4895690;29;20045;-75
2023/04/17 02:02:43;;;;;;;18.52;16.52;;;11.50;99.90;;;;;;4873992;29;20048;-76
2023/04/17 02:05:10;;;;;;;18.98;16.98;;;11.50;99.90;;;;;;4874067;29;20063;-77
2023/04/17 02:07:38;;;;;;;18.50;16.35;;;11.50;99.90;;;;;;4889409;29;20077;-76
2023/04/17 02:10:06;;;;;;;19.30;15.88;;;11.50;99.90;;;;;;4890609;29;20052;-76
2023/04/17 02:12:34;;;;;;;16.73;15.02;;;11.50;99.90;;;;;;4917539;29;20072;-77
2023/04/17 02:15:03;;;;;;;17.73;15.15;;;11.50;99.90;;;;;;4913040;29;20057;-76
2023/04/17 02:17:30;;;;;;;16.80;15.00;;;11.50;99.90;;;;;;4890954;29;20048;-76
2023/04/17 02:19:58;;;;;;;20.75;16.73;;;11.50;99.90;;;;;;4899438;29;20151;-78
2023/04/17 02:22:26;;;;;;;19.67;16.48;;;11.50;99.90;;;;;;4871773;29;20044;-77
2023/04/17 02:24:53;;;;;;;19.30;16.60;;;11.50;99.90;;;;;;4889450;29;20137;-76
2023/04/17 02:27:20;;;;;;;18.52;16.40;;;11.50;99.90;;;;;;4890952;29;20593;-77
2023/04/17 02:29:48;;;;;;;21.23;16.75;;;11.50;99.90;;;;;;4891361;29;20045;-77
2023/04/17 02:32:17;;;;;;;21.02;16.65;;;11.60;99.90;;;;;;4874804;29;20219;-76
2023/04/17 02:34:44;;;;;;;18.42;16.58;;;11.60;99.90;;;;;;4875088;29;20045;-77
2023/04/17 02:37:14;;;;;;;24.90;19.63;;;11.70;99.90;;;;;;4869886;29;20056;-77
2023/04/17 02:39:41;;;;;;;20.98;18.00;;;11.60;99.90;;;;;;4889865;29;20225;-79
2023/04/17 02:42:11;;;;;;;26.17;19.92;;;11.60;99.90;;;;;;4873422;29;20100;-75
2023/04/17 02:44:39;;;;;;;23.08;19.52;;;11.60;99.90;;;;;;4907533;29;20071;-77
2023/04/17 02:47:07;;;;;;;26.40;18.58;;;11.60;99.90;;;;;;4898130;29;20111;-76
2023/04/17 02:49:36;;;;;;;23.55;19.45;;;11.60;99.90;;;;;;4872030;29;20049;-78
2023/04/17 02:52:04;;;;;;;21.35;19.05;;;11.70;99.90;;;;;;4870365;29;20458;-77
2023/04/17 02:54:31;;;;;;;22.30;19.90;;;11.70;99.90;;;;;;4889471;29;20131;-77
2023/04/17 02:57:00;;;;;;;21.42;19.13;;;11.80;99.90;;;;;;4887632;29;20076;-78
2023/04/17 02:59:28;;;;;;;22.90;20.08;;;11.80;99.90;;;;;;4875758;29;20029;-75
2023/04/17 03:01:58;;;;;;;26.10;20.80;;;11.80;99.90;;;;;;4880694;29;20101;-77
2023/04/17 03:04:26;;;;;;;25.75;22.05;;;11.80;99.90;;;;;;4872429;29;20048;-77
2023/04/17 03:06:55;;;;;;;26.67;23.30;;;11.80;99.90;;;;;;4890751;29;20037;-75
2023/04/17 03:09:23;;;;;;;30.15;22.95;;;11.80;99.90;;;;;;4887629;29;20045;-77
2023/04/17 03:11:52;;;;;;;30.17;22.77;;;11.80;99.90;;;;;;4894552;29;20059;-76
2023/04/17 03:14:19;;;;;;;29.23;23.08;;;11.70;99.90;;;;;;4888573;29;20499;-77
2023/04/17 03:16:47;;;;;;;24.92;20.60;;;11.80;99.90;;;;;;4887387;29;20056;-75
2023/04/17 03:19:14;;;;;;;24.02;21.35;;;11.80;99.90;;;;;;4888163;29;20063;-76
2023/04/17 03:21:42;;;;;;;25.58;21.95;;;11.80;99.90;;;;;;4871644;29;20413;-78
2023/04/17 03:24:12;;;;;;;21.42;19.15;;;11.80;99.90;;;;;;4871203;29;20057;-76
2023/04/17 03:26:40;;;;;;;22.15;19.80;;;11.80;99.90;;;;;;4888092;29;20049;-75
2023/04/17 03:29:13;;;;;;;25.33;22.05;;;11.90;99.90;;;;;;4892195;29;20056;-80
2023/04/17 03:31:41;;;;;;;25.15;20.50;;;11.90;99.90;;;;;;4882337;29;20060;-76
2023/04/17 03:34:08;;;;;;;25.35;21.13;;;11.80;99.90;;;;;;4892260;29;20524;-76
2023/04/17 03:36:36;;;;;;;24.35;20.90;;;11.80;99.90;;;;;;4873212;29;20053;-75
2023/04/17 03:39:04;;;;;;;28.13;20.48;;;11.80;99.90;;;;;;4872592;29;20066;-76
2023/04/17 03:41:34;;;;;;;27.85;21.40;;;11.70;99.90;;;;;;4889598;29;20060;-76
2023/04/17 03:44:01;;;;;;;23.35;19.88;;;11.70;99.90;;;;;;4888083;29;20086;-75
2023/04/17 03:46:30;;;;;;;22.27;19.48;;;11.70;99.90;;;;;;4872742;29;20416;-75
2023/04/17 03:48:57;;;;;;;23.98;20.48;;;11.70;99.90;;;;;;4875587;29;20063;-78
2023/04/17 03:51:27;;;;;;;23.10;20.02;;;11.70;99.90;;;;;;4875634;29;20037;-74
2023/04/17 03:53:59;;;;;;;20.50;18.30;;;11.70;99.90;;;;;;4899294;29;20045;-77
2023/04/17 03:56:27;;;;;;;21.50;19.35;;;11.80;99.90;;;;;;4872390;29;20535;-77
2023/04/17 03:58:56;;;;;;;19.83;17.73;;;11.80;99.90;;;;;;4885060;29;20045;-77
2023/04/17 04:01:27;;;;;;;20.70;16.85;;;11.70;99.90;;;;;;4871685;29;20049;-77
2023/04/17 04:04:21;;;;;;;16.38;14.77;;;11.70;99.90;;;;;;4870928;29;20048;-77
2023/04/17 04:06:56;;;;;;;18.65;16.65;;;11.70;99.90;;;;;;4871426;29;20048;-75
2023/04/17 04:09:25;;;;;;;19.52;16.85;;;11.70;99.90;;;;;;4879635;29;20069;-75
2023/04/17 04:11:52;;;;;;;18.40;16.20;;;11.70;99.90;;;;;;4874583;29;20072;-77
2023/04/17 04:14:21;;;;;;;21.52;18.13;;;11.70;99.90;;;;;;4875037;29;20524;-74
2023/04/17 04:16:49;;;;;;;20.25;18.15;;;11.70;99.90;;;;;;4887657;29;20045;-78
2023/04/17 04:19:18;;;;;;;20.13;18.00;;;11.70;99.90;;;;;;4891361;29;20451;-78
2023/04/17 04:21:46;;;;;;;19.58;16.88;;;11.70;99.90;;;;;;4892394;29;20067;-76
2023/04/17 04:24:15;;;;;;;18.33;16.30;;;11.70;99.90;;;;;;4890903;29;20100;-75
2023/04/17 04:26:46;;;;;;;19.50;17.40;;;11.70;99.90;;;;;;4874319;29;20044;-75
2023/04/17 04:29:13;;;;;;;21.75;17.52;;;11.80;99.90;;;;;;4901365;29;20048;-78
2023/04/17 04:31:50;;;;;;;20.45;18.25;;;11.80;99.90;;;;;;4872895;29;20077;-75
2023/04/17 04:34:20;;;;;;;20.38;17.15;;;11.80;99.90;;;;;;4875603;29;20561;-77
2023/04/17 04:36:49;;;;;;;19.25;17.17;;;11.90;99.90;;;;;;4873816;29;20049;-76
2023/04/17 04:39:40;;;;;;;19.63;15.65;;;11.90;99.90;;;;;;4884644;29;20057;-76
2023/04/17 04:42:10;;;;;;;20.40;17.50;;;11.90;99.90;;;;;;4894274;29;20513;-77
2023/04/17 04:44:52;;;;;;;23.77;18.05;;;11.90;99.90;;;;;;4875870;29;20045;-75
2023/04/17 04:47:22;;;;;;;26.98;19.42;;;11.80;99.90;;;;;;4873987;29;20103;-75
2023/04/17 04:49:50;;;;;;;23.80;19.92;;;11.80;99.90;;;;;;4871712;29;20045;-77
2023/04/17 04:52:21;;;;;;;20.17;18.15;;;11.80;99.90;;;;;;4890743;29;20071;-77
2023/04/17 04:54:51;;;;;;;21.05;18.30;;;11.80;99.90;;;;;;4877539;29;20048;-75
2023/04/17 04:57:19;;;;;;;18.65;16.65;;;11.80;99.90;;;;;;4881742;29;20069;-75
2023/04/17 04:59:49;;;;;;;19.58;17.65;;;11.80;99.90;;;;;;4901921;29;20081;-77
2023/04/17 05:02:50;;;;;;;19.88;17.77;;;11.80;99.90;;;;;;4901463;29;20044;-76
2023/04/17 05:05:21;;;;;;;19.58;17.48;;;11.90;99.90;;;;;;4894696;29;20037;-76
2023/04/17 05:07:48;;;;;;;20.23;18.13;;;11.90;99.90;;;;;;4899445;29;20041;-76
2023/04/17 05:10:16;;;;;;;20.77;17.30;;;11.90;99.90;;;;;;4885237;29;20044;-76
2023/04/17 05:12:50;;;;;;;20.83;18.42;;;11.90;99.90;;;;;;4884069;29;20052;-76
2023/04/17 05:15:17;;;;;;;20.63;18.55;;;12.00;99.90;;;;;;4885047;29;20077;-74
2023/04/17 05:17:45;;;;;;;22.35;19.45;;;12.00;99.90;;;;;;4896007;29;20456;-73
2023/04/17 05:20:15;;;;;;;22.30;18.85;;;12.00;99.90;;;;;;4903574;29;20045;-76
2023/04/17 05:22:50;;;;;;;20.50;18.40;;;11.90;99.90;;;;;;4889520;29;20045;-78
2023/04/17 05:25:18;;;;;;;21.02;18.20;;;11.90;99.90;;;;;;4901211;29;20045;-76
2023/04/17 05:27:47;;;;;;;24.35;18.48;;;11.90;99.90;;;;;;4880091;29;20081;-76
2023/04/17 05:30:15;;;;;;;20.33;18.17;;;11.90;99.90;;;;;;4874253;29;20072;-74
2023/04/17 05:32:47;;;;;;;21.52;18.40;;;11.90;99.90;;;;;;4893003;29;20061;-76
2023/04/17 05:35:32;;;;;;;20.48;18.33;;;11.90;99.90;;;;;;4898216;29;20109;-75
2023/04/17 05:38:00;;;;;;;21.98;18.98;;;11.90;99.90;;;;;;4876260;29;20071;-76
2023/04/17 05:40:27;;;;;;;24.10;20.85;;;11.90;99.90;;;;;;4894186;29;20093;-77
2023/04/17 05:42:55;;;;;;;22.25;19.95;;;11.90;99.90;;;;;;4875495;29;20135;-75
2023/04/17 05:45:22;;;;;;;21.80;18.67;;;11.90;99.90;;;;;;4874332;29;20060;-75
2023/04/17 05:47:50;;;;;;;22.30;18.48;;;11.90;99.90;;;;;;4892069;29;20103;-74
2023/04/17 05:50:17;;;;;;;25.27;22.58;;;11.90;99.90;;;;;;4876952;29;20069;-78
2023/04/17 05:52:47;;;;;;;20.95;18.77;;;11.90;99.90;;;;;;4879743;29;20051;-76
2023/04/17 05:55:15;;;;;;;22.13;19.83;;;12.00;99.90;;;;;;4880019;29;20493;-77
2023/04/17 05:57:44;;;;;;;20.88;18.88;;;12.00;99.90;;;;;;4895690;29;20105;-79
2023/04/17 06:00:13;;;;;;;22.92;19.55;;;12.00;99.90;;;;;;4877390;29;20041;-77
2023/04/17 06:02:51;;;;;;;22.58;18.45;;;12.10;99.90;;;;;;4880430;29;20047;-76
2023/04/17 06:05:28;;;;;;;19.52;17.27;;;12.10;99.90;;;;;;4880442;29;20041;-73
2023/04/17 06:08:00;;;;;;;21.83;19.15;;;12.20;99.90;;;;;;4890797;29;20045;-77
2023/04/17 06:10:28;;;;;;;19.15;17.08;;;12.20;99.90;;;;;;4892107;29;20067;-75
2023/04/17 06:12:55;;;;;;;19.15;16.83;;;12.30;99.90;;;;;;4893552;29;20080;-79
2023/04/17 06:15:23;;;;;;;18.83;16.50;;;12.30;99.90;;;;;;4880390;29;20048;-74
2023/04/17 06:17:51;;;;;;;21.40;16.13;;;12.30;99.90;;;;;;4881177;29;20044;-75
2023/04/17 06:20:18;;;;;;;17.10;15.15;;;12.30;99.90;;;;;;4900586;29;20057;-77
2023/04/17 06:22:46;;;;;;;18.23;14.93;;;12.30;99.90;;;;;;4881894;29;20065;-74
2023/04/17 06:25:16;;;;;;;87.70;71.25;;;12.30;99.90;;;;;;4884171;29;20049;-77
2023/04/17 06:27:46;;;;;;;47.85;36.92;;;12.30;99.90;;;;;;4883479;29;20113;-77
2023/04/17 06:30:14;;;;;;;30.52;25.55;;;12.40;99.90;;;;;;4881127;29;20051;-78
2023/04/17 06:32:49;;;;;;;;;;;12.40;99.90;;;;;;4890891;29;20049;-77
2023/04/17 06:35:18;;;;;;;23.00;17.60;;;12.50;99.90;;;;;;4898293;29;19951;-78
2023/04/17 06:37:57;;;;;;;21.35;18.42;;;12.60;99.90;;;;;;4885379;29;20056;-76
2023/04/17 06:40:26;;;;;;;32.53;18.67;;;12.70;99.90;;;;;;4874167;29;20138;-74
2023/04/17 06:42:54;;;;;;;22.55;18.23;;;12.80;99.90;;;;;;4877125;29;20036;-77
2023/04/17 06:45:23;;;;;;;21.13;17.85;;;12.90;99.90;;;;;;4876105;29;20112;-75
2023/04/17 06:47:52;;;;;;;25.65;17.73;;;13.00;99.90;;;;;;4898547;29;20081;-76
2023/04/17 06:50:19;;;;;;;19.92;16.95;;;13.10;99.90;;;;;;4892432;29;20112;-77
2023/04/17 06:52:47;;;;;;;18.30;15.60;;;13.10;99.90;;;;;;4873615;29;20060;-76
2023/04/17 06:55:14;;;;;;;19.73;15.38;;;13.20;99.90;;;;;;4893428;29;20074;-75
2023/04/17 06:57:43;;;;;;;42.67;33.25;;;13.20;99.90;;;;;;4892989;29;20049;-78
2023/04/17 07:00:12;;;;;;;55.15;46.20;;;13.20;99.90;;;;;;4893334;29;20049;-78
2023/04/17 07:02:40;;;;;;;32.33;27.00;;;13.20;99.90;;;;;;4890341;29;20072;-76
2023/04/17 07:05:08;;;;;;;22.73;15.57;;;13.10;99.90;;;;;;4884658;29;20069;-77
2023/04/17 07:07:36;;;;;;;18.15;15.48;;;13.10;99.90;;;;;;4892022;29;20048;-75
2023/04/17 07:10:03;;;;;;;20.20;17.08;;;13.10;99.90;;;;;;4892622;29;20135;-78
2023/04/17 07:12:31;;;;;;;19.52;15.20;;;13.10;99.90;;;;;;4892675;29;20057;-77
2023/04/17 07:15:00;;;;;;;17.40;15.57;;;13.10;99.90;;;;;;4893392;29;20053;-79
2023/04/17 07:17:27;;;;;;;16.98;14.15;;;13.10;99.90;;;;;;4895405;29;20112;-76
2023/04/17 07:19:55;;;;;;;19.48;15.07;;;13.10;99.90;;;;;;4895535;29;20041;-78
2023/04/17 07:22:22;;;;;;;19.42;15.20;;;13.00;99.90;;;;;;4893234;29;20099;-74
2023/04/17 07:24:50;;;;;;;17.38;15.65;;;13.00;99.90;;;;;;4891113;29;20059;-75
2023/04/17 07:27:17;;;;;;;21.70;18.40;;;13.00;99.90;;;;;;4889935;29;20075;-76
2023/04/17 07:29:46;;;;;;;21.25;18.95;;;13.00;99.90;;;;;;4893217;29;20089;-77
2023/04/17 07:32:15;;;;;;;22.92;20.52;;;12.90;99.90;;;;;;4892487;29;20065;-76
2023/04/17 07:34:42;;;;;;;28.67;24.23;;;12.90;99.90;;;;;;4897076;29;20104;-76
2023/04/17 07:37:10;;;;;;;25.80;21.95;;;12.90;99.90;;;;;;4895163;29;20052;-76
2023/04/17 07:39:37;;;;;;;22.83;20.42;;;12.80;99.90;;;;;;4892352;29;20070;-77
2023/04/17 07:42:07;;;;;;;27.23;23.88;;;12.70;99.90;;;;;;4892999;29;20509;-77
2023/04/17 07:44:35;;;;;;;22.70;19.75;;;12.70;99.90;;;;;;4890671;29;20063;-76
2023/04/17 07:47:02;;;;;;;25.40;21.17;;;12.80;99.90;;;;;;4891696;29;20128;-77
2023/04/17 07:49:31;;;;;;;20.45;16.65;;;12.90;99.90;;;;;;4895339;29;20044;-78
2023/04/17 07:51:59;;;;;;;21.45;16.48;;;13.00;99.90;;;;;;4894446;29;20048;-78
2023/04/17 07:54:26;;;;;;;22.80;16.33;;;13.20;99.90;;;;;;4873553;29;20055;-76
2023/04/17 07:56:55;;;;;;;20.85;18.48;;;13.30;99.90;;;;;;4873588;29;20158;-78
2023/04/17 07:59:22;;;;;;;18.17;14.45;;;13.40;99.90;;;;;;4888679;29;20044;-77
2023/04/17 08:01:51;;;;;;;13.95;11.23;;;13.50;99.90;;;;;;4890264;29;20052;-76
2023/04/17 08:04:18;;;;;;;18.02;10.85;;;13.50;99.90;;;;;;4892951;29;20075;-78
2023/04/17 08:06:47;;;;;;;12.68;10.90;;;13.50;99.90;;;;;;4883434;29;20871;-76
2023/04/17 08:09:14;;;;;;;11.60;10.40;;;13.50;99.90;;;;;;4898730;29;20124;-77
2023/04/17 08:11:44;;;;;;;13.63;10.85;;;13.60;99.90;;;;;;4889462;29;20045;-74
2023/04/17 08:14:14;;;;;;;15.77;10.23;;;13.70;99.90;;;;;;4888820;29;20056;-75
2023/04/17 08:16:41;;;;;;;11.70;10.50;;;13.70;99.90;;;;;;4898079;29;20065;-77
2023/04/17 08:19:09;;;;;;;13.80;11.85;;;13.80;99.90;;;;;;4896950;29;20490;-77
2023/04/17 08:21:36;;;;;;;11.60;10.43;;;13.70;99.90;;;;;;4896069;29;20074;-74
2023/04/17 08:24:06;;;;;;;15.43;10.15;;;13.70;99.90;;;;;;4896713;29;20486;-77
2023/04/17 08:26:34;;;;;;;14.73;10.23;;;13.60;99.90;;;;;;4873877;29;20215;-77
2023/04/17 08:29:03;;;;;;;14.98;10.55;;;13.60;99.90;;;;;;4897448;29;20053;-79
2023/04/17 08:31:31;;;;;;;13.15;10.75;;;13.70;99.90;;;;;;4899505;29;20099;-79
2023/04/17 08:34:00;;;;;;;13.07;10.82;;;13.70;99.90;;;;;;4898367;29;20053;-77
2023/04/17 08:36:28;;;;;;;13.35;11.02;;;13.80;99.90;;;;;;4887316;29;20082;-77
2023/04/17 08:38:56;;;;;;;13.90;11.07;;;13.90;99.90;;;;;;4890012;29;20044;-76
2023/04/17 08:41:33;;;;;;;13.25;10.75;;;13.90;99.90;;;;;;4896010;29;20073;-76
2023/04/17 08:44:03;;;;;;;17.55;11.82;;;14.00;99.90;;;;;;4895116;29;20063;-77
2023/04/17 08:46:33;;;;;;;14.02;11.15;;;14.20;99.90;;;;;;4897976;29;20059;-77
2023/04/17 08:49:03;;;;;;;13.15;10.07;;;14.40;99.90;;;;;;4897128;29;20055;-77
2023/04/17 08:51:31;;;;;;;12.55;10.68;;;14.70;99.90;;;;;;4896394;29;20053;-76
2023/04/17 08:53:59;;;;;;;11.60;10.38;;;15.10;99.90;;;;;;4893221;29;20518;-75
2023/04/17 08:56:29;;;;;;;11.48;10.23;;;15.10;99.90;;;;;;4895070;29;20056;-77
2023/04/17 08:58:57;;;;;;;15.70;11.98;;;15.20;99.90;;;;;;4897886;29;20096;-77
2023/04/17 09:01:24;;;;;;;20.77;15.27;;;15.10;99.90;;;;;;4887052;29;20056;-73
2023/04/17 09:03:52;;;;;;;11.85;10.35;;;15.10;99.90;;;;;;4893286;29;20075;-78
2023/04/17 09:06:20;;;;;;;16.17;13.15;;;15.00;99.90;;;;;;4887228;29;20590;-76
2023/04/17 09:09:05;;;;;;;14.63;11.07;;;15.00;99.90;;;;;;4888790;29;20072;-78
2023/04/17 09:11:34;;;;;;;12.32;9.52;;;14.90;99.90;;;;;;4886993;29;20041;-77
2023/04/17 09:14:01;;;;;;;11.63;9.73;;;14.90;99.90;;;;;;4889027;29;20056;-77
2023/04/17 09:16:28;;;;;;;14.40;10.73;;;14.90;99.90;;;;;;4888612;29;20604;-77
2023/04/17 09:19:05;;;;;;;16.20;11.95;;;14.90;99.90;;;;;;4887286;29;20044;-78
2023/04/17 09:21:33;;;;;;;12.85;8.90;;;14.90;99.90;;;;;;4871899;29;20048;-78
2023/04/17 09:24:00;;;;;;;15.82;13.65;;;14.90;99.90;;;;;;4886396;29;20190;-76
2023/04/17 09:26:32;;;;;;;16.00;13.23;;;14.90;99.90;;;;;;4898135;29;20207;-75
2023/04/17 09:29:07;;;;;;;15.30;12.63;;;14.80;99.90;;;;;;4895031;29;20497;-77
2023/04/17 09:31:36;;;;;;;15.20;12.07;;;14.80;99.90;;;;;;4901425;29;20060;-76
2023/04/17 09:34:06;;;;;;;17.48;13.45;;;14.80;99.90;;;;;;4890679;29;20041;-76
2023/04/17 09:36:35;;;;;;;16.00;12.65;;;14.80;99.90;;;;;;4906219;29;20068;-77
2023/04/17 09:39:05;;;;;;;18.63;14.93;;;15.00;99.90;;;;;;4905727;29;20066;-77
2023/04/17 09:41:35;;;;;;;20.33;16.42;;;15.20;99.90;;;;;;4907781;29;20049;-78
2023/04/17 09:44:05;;;;;;;16.75;14.95;;;15.10;99.90;;;;;;4902012;29;20052;-77
2023/04/17 09:46:37;;;;;;;26.42;17.45;;;14.90;99.90;;;;;;4903632;29;20044;-77
2023/04/17 09:49:14;;;;;;;20.40;18.20;;;14.90;99.90;;;;;;4901538;29;20112;-76
2023/04/17 09:51:43;;;;;;;20.20;17.05;;;14.70;99.90;;;;;;4887958;29;20037;-77
2023/04/17 09:54:11;;;;;;;17.15;15.35;;;14.60;99.90;;;;;;4872661;29;20041;-76
2023/04/17 09:56:40;;;;;;;17.17;15.10;;;14.40;99.90;;;;;;4894177;29;20148;-76
2023/04/17 09:59:09;;;;;;;18.70;16.08;;;14.30;99.90;;;;;;4891902;29;20067;-77
2023/04/17 10:01:39;;;;;;;23.58;13.82;;;14.20;99.90;;;;;;4889624;29;20159;-77
2023/04/17 10:04:07;;;;;;;21.40;17.52;;;14.20;99.90;;;;;;4874906;29;20045;-74
2023/04/17 10:06:35;;;;;;;18.33;15.45;;;14.20;99.90;;;;;;4890277;29;20048;-76
2023/04/17 10:09:04;;;;;;;18.85;16.85;;;14.20;99.90;;;;;;4890253;29;20065;-76
2023/04/17 10:11:38;;;;;;;21.52;16.63;;;14.20;99.90;;;;;;4898298;29;20033;-75
2023/04/17 10:14:11;;;;;;;19.73;15.65;;;14.20;99.90;;;;;;4897214;29;20076;-78
2023/04/17 10:16:42;;;;;;;18.88;15.35;;;14.20;99.90;;;;;;4892629;29;20044;-77
2023/04/17 10:19:28;;;;;;;23.63;16.25;;;14.10;99.90;;;;;;4875718;29;20049;-77
2023/04/17 10:22:30;;;;;;;20.88;16.77;;;14.10;99.90;;;;;;4890024;29;20049;-78
2023/04/17 10:25:19;;;;;;;19.30;14.77;;;14.10;99.90;;;;;;4889158;29;20497;-76
2023/04/17 10:27:53;;;;;;;17.35;14.38;;;14.30;99.90;;;;;;4896110;29;20116;-76
2023/04/17 10:30:22;;;;;;;19.95;16.70;;;14.40;99.90;;;;;;4889314;29;20044;-77
2023/04/17 10:33:24;;;;;;;21.80;16.77;;;14.50;99.90;;;;;;4890203;29;20060;-77
2023/04/17 10:35:52;;;;;;;20.73;17.40;;;14.60;99.90;;;;;;4890480;29;20045;-76
2023/04/17 10:38:43;;;;;;;16.73;13.18;;;14.80;99.90;;;;;;4888032;29;20052;-77
2023/04/17 10:41:12;;;;;;;16.67;14.55;;;14.80;99.90;;;;;;4886289;29;20644;-75
2023/04/17 10:43:44;;;;;;;16.73;12.77;;;14.80;99.90;;;;;;4875829;29;20074;-75
2023/04/17 10:46:14;;;;;;;18.25;13.98;;;14.70;99.90;;;;;;4889131;29;20057;-75
2023/04/17 10:48:48;;;;;;;16.10;13.77;;;14.80;99.90;;;;;;4889961;29;20052;-77
2023/04/17 10:51:40;;;;;;;14.98;13.38;;;14.80;99.90;;;;;;4888024;29;20088;-76
2023/04/17 10:54:12;;;;;;;14.15;12.50;;;14.80;99.90;;;;;;4906147;29;20048;-78
2023/04/17 10:56:41;;;;;;;14.25;12.85;;;14.80;99.90;;;;;;4907733;29;20029;-76
2023/04/17 10:59:10;;;;;;;16.15;13.90;;;14.70;99.90;;;;;;4905958;29;20053;-76
2023/04/17 11:01:59;;;;;;;17.00;13.27;;;14.50;99.90;;;;;;4907307;29;20052;-77
2023/04/17 11:04:32;;;;;;;15.35;12.68;;;14.40;99.90;;;;;;4903351;29;20055;-77
2023/04/17 11:07:00;;;;;;;15.02;12.38;;;14.30;99.90;;;;;;4897956;29;20045;-76
2023/04/17 11:09:29;;;;;;;16.25;14.13;;;14.20;99.90;;;;;;4889531;29;20048;-78
2023/04/17 11:12:00;;;;;;;19.25;15.18;;;14.00;99.90;;;;;;4888588;29;20063;-77
2023/04/17 11:14:29;;;;;;;17.17;15.30;;;14.00;99.90;;;;;;4889807;29;20390;-77
2023/04/17 11:16:58;;;;;;;17.25;14.05;;;13.90;99.90;;;;;;4887834;29;20053;-77
2023/04/17 11:19:25;;;;;;;16.10;13.75;;;13.80;99.90;;;;;;4889926;29;20151;-77
2023/04/17 11:21:56;;;;;;;19.42;15.63;;;13.80;99.90;;;;;;4888203;29;20041;-77
2023/04/17 11:24:24;;;;;;;16.60;14.90;;;13.80;99.90;;;;;;4888451;29;20071;-76
2023/04/17 11:26:51;;;;;;;17.35;15.55;;;13.70;99.90;;;;;;4896816;29;20041;-76
2023/04/17 11:29:22;;;;;;;18.52;16.33;;;13.70;99.90;;;;;;4896425;29;20061;-77
2023/04/17 11:31:51;;;;;;;20.05;17.27;;;13.70;99.90;;;;;;4890062;29;20064;-75
2023/04/17 11:34:20;;;;;;;19.92;16.60;;;13.60;99.90;;;;;;4889014;29;20048;-77
2023/04/17 11:36:51;;;;;;;18.85;16.30;;;13.70;99.90;;;;;;4897951;29;20040;-77
2023/04/17 11:39:20;;;;;;;24.58;18.63;;;13.80;99.90;;;;;;4905519;29;20053;-76
2023/04/17 11:41:48;;;;;;;21.13;16.35;;;13.90;99.90;;;;;;4906294;29;20043;-75
2023/04/17 11:44:18;;;;;;;19.45;16.27;;;13.90;99.90;;;;;;4899067;29;20057;-78
2023/04/17 11:46:51;;;;;;;19.73;17.63;;;13.90;99.90;;;;;;4895141;29;20033;-76
2023/04/17 11:49:26;;;;;;;19.85;17.75;;;13.70;99.90;;;;;;4893728;29;20068;-76
2023/04/17 11:51:54;;;;;;;20.85;17.15;;;13.70;99.90;;;;;;4891363;29;20132;-78
2023/04/17 11:54:25;;;;;;;25.40;21.08;;;13.60;99.90;;;;;;4889675;29;20605;-79
2023/04/17 11:57:01;;;;;;;28.10;22.95;;;13.70;99.90;;;;;;4871452;29;20342;-74
2023/04/17 11:59:32;;;;;;;28.98;23.08;;;13.80;99.90;;;;;;4896366;29;20053;-77
2023/04/17 12:02:00;;;;;;;27.52;22.17;;;13.90;99.90;;;;;;4889695;29;20104;-79
2023/04/17 12:04:33;;;;;;;27.73;24.23;;;14.10;99.90;;;;;;4869986;29;20076;-76
2023/04/17 12:07:00;;;;;;;29.58;21.38;;;14.20;99.90;;;;;;4887206;29;20056;-78
2023/04/17 12:09:30;;;;;;;26.13;21.77;;;14.20;99.90;;;;;;4887039;29;20073;-78
2023/04/17 12:11:58;;;;;;;26.40;22.15;;;14.20;99.90;;;;;;4887731;29;20051;-78
2023/04/17 12:14:25;;;;;;;28.45;23.48;;;14.20;99.90;;;;;;4885592;29;20170;-77
2023/04/17 12:16:53;;;;;;;29.45;23.00;;;14.30;99.90;;;;;;4885395;29;20056;-76
2023/04/17 12:19:24;;;;;;;27.17;22.80;;;14.40;99.90;;;;;;4870021;29;20120;-76
2023/04/17 12:21:53;;;;;;;28.75;21.92;;;14.40;99.90;;;;;;4887279;29;20049;-78
2023/04/17 12:24:23;;;;;;;27.23;21.73;;;14.50;99.90;;;;;;4886729;29;20148;-77
2023/04/17 12:26:52;;;;;;;27.70;23.05;;;14.40;99.90;;;;;;4888215;29;20045;-75
2023/04/17 12:29:23;;;;;;;27.92;23.02;;;14.40;99.90;;;;;;4885071;29;20048;-78
2023/04/17 12:31:50;;;;;;;28.95;24.27;;;14.40;99.90;;;;;;4884495;29;20536;-76
2023/04/17 12:34:18;;;;;;;28.67;23.85;;;14.40;99.90;;;;;;4868846;29;20049;-78
2023/04/17 12:36:46;;;;;;;26.42;23.00;;;14.30;99.90;;;;;;4885849;29;20116;-79
2023/04/17 12:39:15;;;;;;;45.40;38.25;;;14.40;99.90;;;;;;4886042;29;20176;-75
2023/04/17 12:41:42;;;;;;;29.30;25.00;;;14.40;99.90;;;;;;4887208;29;20236;-75